Sugarbush Valley, Vermont
Current Conditions -  °F | °C
As of 10:35 PM on Monday 22 Dec 2014 (Local Time) from K6B0 Reporting Station
Haze Haze  
Wind Chill: 28°   Ceiling: 4800
Heat Index: 28°   Visibility: 5mi
Dew Point: 28°   Wind: 3mph
Humidity: 98%   Direction: 360°N
Pressure: 30.25"   Gusts: NA
Location:  44.1108°N, 72.8612°W
Report Text: K6B0 230335Z AUTO 36003KT 5SM BR OVC048 M02/M02 A3025 RMK AO2 T10221025
Loading
Personal Weather Stations






























Interactive Weather Map New forecast layout! Learn more

10-Day Weather Forecast

Advertisements
Track Severe Weather on mobile